Time;durP1;ratioP1;P1;durP2;ratioP2;P2;SDS_P1;SDS_P2;PMS_P1;PMS_P2;Temp;Humidity;BMP_temperature;BMP_pressure;BME280_temperature;BME280_humidity;BME280_pressure;Samples;Min_cycle;Max_cycle;Signal;HPM_P1;HPM_P2
2023/09/30 00:00:25;;;;;;;1.65;1.15;;;15.30;67.30;;;;;;5175171;27;20482;-69
2023/09/30 00:02:51;;;;;;;0.50;0.50;;;15.20;67.30;;;;;;5174862;27;20106;-69
2023/09/30 00:05:19;;;;;;;0.47;0.47;;;15.20;67.50;;;;;;5175146;27;20030;-69
2023/09/30 00:07:45;;;;;;;0.50;0.50;;;15.20;67.60;;;;;;5175177;27;20015;-69
2023/09/30 00:10:11;;;;;;;1.30;1.20;;;15.20;67.60;;;;;;5175335;27;20387;-70
2023/09/30 00:12:36;;;;;;;0.50;0.50;;;15.20;67.60;;;;;;5174724;27;20018;-70
2023/09/30 00:15:03;;;;;;;2.03;1.15;;;15.20;67.60;;;;;;5174858;27;20073;-70
2023/09/30 00:17:29;;;;;;;0.50;0.50;;;15.10;67.50;;;;;;5174977;27;20028;-70
2023/09/30 00:19:55;;;;;;;0.40;0.40;;;15.10;67.50;;;;;;5174789;27;20034;-70
2023/09/30 00:22:20;;;;;;;0.50;0.50;;;15.10;67.60;;;;;;5174583;27;20051;-70
2023/09/30 00:24:46;;;;;;;0.50;0.50;;;15.00;67.60;;;;;;5174444;27;20516;-70
2023/09/30 00:27:12;;;;;;;0.60;0.60;;;15.00;67.60;;;;;;5173701;27;20021;-70
2023/09/30 00:29:37;;;;;;;0.50;0.50;;;15.00;67.60;;;;;;5174709;27;20033;-70
2023/09/30 00:32:04;;;;;;;0.50;0.50;;;15.00;67.60;;;;;;5173692;27;20371;-70
2023/09/30 00:34:33;;;;;;;0.30;0.30;;;15.00;67.60;;;;;;5173616;27;20027;-70
2023/09/30 00:36:58;;;;;;;0.55;0.55;;;14.90;67.60;;;;;;5168402;27;20014;-70
2023/09/30 00:39:26;;;;;;;0.40;0.40;;;14.90;67.60;;;;;;5153320;27;20037;-70
2023/09/30 00:41:54;;;;;;;0.40;0.40;;;14.90;67.60;;;;;;5153265;27;20018;-70
2023/09/30 00:44:19;;;;;;;0.95;0.82;;;14.90;67.80;;;;;;5153717;27;20432;-70
2023/09/30 00:46:45;;;;;;;0.82;0.82;;;14.80;67.70;;;;;;5153196;27;20114;-70
2023/09/30 00:49:14;;;;;;;0.40;0.40;;;14.80;67.90;;;;;;5168137;27;20023;-70
2023/09/30 00:51:40;;;;;;;0.40;0.40;;;14.90;68.20;;;;;;5172916;27;20372;-70
2023/09/30 00:54:06;;;;;;;0.85;0.85;;;14.90;68.40;;;;;;5173945;27;20386;-70
2023/09/30 00:56:33;;;;;;;0.55;0.55;;;15.00;68.70;;;;;;5174142;27;20022;-70
2023/09/30 00:59:00;;;;;;;0.70;0.70;;;15.00;68.70;;;;;;5173834;27;20470;-70
2023/09/30 01:01:26;;;;;;;0.40;0.40;;;15.00;68.80;;;;;;5174228;27;20071;-70
2023/09/30 01:03:52;;;;;;;0.40;0.40;;;15.00;68.60;;;;;;5173887;27;20415;-68
2023/09/30 01:06:18;;;;;;;0.40;0.40;;;15.10;68.70;;;;;;5173766;27;20033;-69
2023/09/30 01:08:44;;;;;;;0.70;0.70;;;15.10;68.60;;;;;;5173778;27;20466;-69
2023/09/30 01:11:09;;;;;;;0.43;0.43;;;15.10;68.60;;;;;;5174088;27;20113;-69
2023/09/30 01:13:36;;;;;;;0.45;0.45;;;15.00;68.60;;;;;;5172287;27;20029;-69
2023/09/30 01:16:06;;;;;;;0.50;0.50;;;15.10;68.50;;;;;;5174003;27;20063;-69
2023/09/30 01:18:32;;;;;;;0.50;0.50;;;15.10;68.50;;;;;;5173644;27;20030;-69
2023/09/30 01:21:03;;;;;;;0.40;0.40;;;15.10;68.40;;;;;;5174198;27;20470;-69
2023/09/30 01:23:30;;;;;;;0.57;0.57;;;15.10;68.60;;;;;;5173922;27;20391;-70
2023/09/30 01:25:55;;;;;;;0.50;0.50;;;15.10;68.60;;;;;;5174131;27;20042;-70
2023/09/30 01:28:21;;;;;;;0.40;0.40;;;15.20;68.70;;;;;;5173703;27;20486;-67
2023/09/30 01:30:47;;;;;;;0.40;0.40;;;15.20;68.80;;;;;;5173499;27;20035;-67
2023/09/30 01:33:12;;;;;;;0.40;0.40;;;15.20;68.70;;;;;;5173448;27;20053;-67
2023/09/30 01:35:38;;;;;;;0.50;0.50;;;15.30;68.80;;;;;;5173794;27;20101;-67
2023/09/30 01:38:04;;;;;;;0.40;0.40;;;15.30;69.00;;;;;;5156758;27;20023;-68
2023/09/30 01:40:30;;;;;;;0.50;0.50;;;15.30;69.10;;;;;;5153183;27;20023;-67
2023/09/30 01:42:56;;;;;;;0.50;0.50;;;15.30;69.10;;;;;;5152632;27;20044;-68
2023/09/30 01:45:22;;;;;;;0.80;0.80;;;15.40;69.10;;;;;;5157214;27;20023;-67
2023/09/30 01:47:47;;;;;;;0.50;0.50;;;15.50;69.10;;;;;;5159662;27;20082;-68
2023/09/30 01:50:13;;;;;;;0.45;0.45;;;15.50;69.00;;;;;;5177760;27;20022;-68
2023/09/30 01:52:38;;;;;;;0.75;0.75;;;15.60;69.20;;;;;;5177550;27;20078;-68
2023/09/30 01:55:04;;;;;;;0.43;0.43;;;15.60;69.20;;;;;;5177864;27;20041;-68
2023/09/30 01:57:30;;;;;;;0.60;0.60;;;15.60;69.10;;;;;;5177607;27;20131;-67
2023/09/30 01:59:55;;;;;;;0.75;0.70;;;15.60;69.30;;;;;;5177575;27;20067;-68
2023/09/30 02:02:21;;;;;;;0.40;0.40;;;15.70;69.40;;;;;;5177455;27;20105;-68
2023/09/30 02:04:46;;;;;;;0.40;0.40;;;15.70;69.40;;;;;;5177462;27;20022;-67
2023/09/30 02:07:12;;;;;;;0.57;0.57;;;15.70;69.30;;;;;;5177282;27;20034;-67
2023/09/30 02:09:37;;;;;;;0.50;0.50;;;15.70;69.40;;;;;;5177476;27;20034;-67
2023/09/30 02:12:03;;;;;;;0.68;0.60;;;15.70;69.50;;;;;;5177448;27;20088;-68
2023/09/30 02:14:29;;;;;;;0.50;0.50;;;15.80;69.50;;;;;;5177190;27;20479;-68
2023/09/30 02:16:54;;;;;;;0.50;0.50;;;15.70;69.20;;;;;;5177109;27;20022;-68
2023/09/30 02:19:21;;;;;;;0.60;0.60;;;15.70;69.00;;;;;;5177155;27;20050;-68
2023/09/30 02:21:47;;;;;;;0.50;0.50;;;15.80;68.80;;;;;;5175855;27;20018;-67
2023/09/30 02:24:13;;;;;;;0.40;0.40;;;15.70;68.70;;;;;;5177134;27;20048;-67
2023/09/30 02:26:38;;;;;;;0.43;0.43;;;15.70;68.60;;;;;;5176910;27;20125;-67
2023/09/30 02:29:07;;;;;;;0.40;0.40;;;15.70;68.60;;;;;;5176723;27;20049;-68
2023/09/30 02:31:33;;;;;;;0.40;0.40;;;15.70;68.60;;;;;;5176947;27;20547;-68
2023/09/30 02:33:59;;;;;;;0.43;0.43;;;15.60;68.70;;;;;;5176788;27;20491;-68
2023/09/30 02:36:24;;;;;;;0.52;0.52;;;15.70;68.70;;;;;;5175873;27;20033;-68
2023/09/30 02:38:50;;;;;;;0.30;0.30;;;15.60;68.70;;;;;;5155779;27;20023;-67
2023/09/30 02:41:17;;;;;;;0.50;0.50;;;15.60;68.60;;;;;;5155719;27;20027;-66
2023/09/30 02:43:42;;;;;;;0.40;0.40;;;15.60;68.40;;;;;;5155554;27;20087;-67
2023/09/30 02:46:08;;;;;;;0.40;0.40;;;15.60;68.30;;;;;;5155650;27;20039;-66
2023/09/30 02:48:34;;;;;;;0.50;0.50;;;15.50;68.20;;;;;;5164067;27;20094;-67
2023/09/30 02:50:59;;;;;;;0.52;0.52;;;15.50;68.10;;;;;;5175670;27;20030;-66
2023/09/30 02:53:25;;;;;;;0.40;0.40;;;15.50;68.20;;;;;;5174981;27;20030;-66
2023/09/30 02:55:55;;;;;;;0.77;0.77;;;15.50;68.40;;;;;;5175372;27;20041;-67
2023/09/30 02:58:21;;;;;;;0.47;0.47;;;15.50;68.90;;;;;;5175403;27;20033;-66
2023/09/30 03:00:50;;;;;;;0.47;0.47;;;15.60;69.00;;;;;;5175579;27;20026;-67
2023/09/30 03:03:16;;;;;;;0.50;0.50;;;15.60;69.00;;;;;;5174994;27;20041;-67
2023/09/30 03:05:41;;;;;;;0.40;0.40;;;15.60;68.90;;;;;;5175314;27;20034;-67
2023/09/30 03:08:07;;;;;;;0.60;0.60;;;15.50;68.50;;;;;;5174790;27;20104;-67
2023/09/30 03:10:32;;;;;;;0.40;0.40;;;15.50;68.40;;;;;;5175331;27;20026;-66
2023/09/30 03:13:01;;;;;;;0.35;0.35;;;15.50;68.30;;;;;;5174896;27;20087;-67
2023/09/30 03:15:28;;;;;;;0.40;0.40;;;15.50;68.30;;;;;;5174948;27;20026;-68
2023/09/30 03:17:55;;;;;;;0.45;0.45;;;15.50;68.30;;;;;;5175081;27;20390;-66
2023/09/30 03:20:21;;;;;;;0.50;0.50;;;15.50;68.30;;;;;;5173543;27;20042;-68
2023/09/30 03:22:47;;;;;;;0.80;0.80;;;15.50;68.10;;;;;;5175099;27;20040;-67
2023/09/30 03:25:15;;;;;;;0.60;0.60;;;15.50;68.10;;;;;;5174853;27;20034;-67
2023/09/30 03:27:41;;;;;;;0.50;0.50;;;15.50;68.30;;;;;;5174565;27;20026;-67
2023/09/30 03:30:08;;;;;;;0.50;0.50;;;15.40;68.10;;;;;;5174783;27;20086;-67
2023/09/30 03:32:37;;;;;;;0.40;0.40;;;15.40;67.90;;;;;;5174565;27;20570;-67
2023/09/30 03:35:07;;;;;;;0.50;0.50;;;15.40;67.80;;;;;;5174741;27;20029;-67
2023/09/30 03:37:33;;;;;;;0.50;0.50;;;15.30;67.70;;;;;;5163764;27;20027;-69
2023/09/30 03:39:58;;;;;;;0.45;0.45;;;15.20;67.50;;;;;;5153927;27;20077;-66
2023/09/30 03:42:24;;;;;;;0.40;0.40;;;15.20;67.50;;;;;;5153418;27;20023;-67
2023/09/30 03:44:49;;;;;;;0.40;0.40;;;15.20;67.30;;;;;;5153591;27;20023;-67
2023/09/30 03:47:18;;;;;;;0.65;0.65;;;15.10;67.30;;;;;;5116535;27;1050429;-67
2023/09/30 03:49:44;;;;;;;0.40;0.40;;;15.00;67.50;;;;;;5174356;27;20056;-70
2023/09/30 03:52:11;;;;;;;0.40;0.40;;;15.00;67.80;;;;;;5175160;27;20083;-70
2023/09/30 03:54:37;;;;;;;0.40;0.40;;;15.00;67.70;;;;;;5175114;27;20049;-70
2023/09/30 03:57:03;;;;;;;0.43;0.43;;;15.00;67.70;;;;;;5175428;27;20030;-70
2023/09/30 03:59:30;;;;;;;0.45;0.45;;;15.00;67.80;;;;;;5175133;27;20103;-70
2023/09/30 04:01:57;;;;;;;0.50;0.50;;;15.00;68.00;;;;;;5175122;27;20023;-71
2023/09/30 04:04:23;;;;;;;0.50;0.50;;;15.00;68.10;;;;;;5175041;27;20394;-71
2023/09/30 04:06:51;;;;;;;1.85;1.02;;;15.00;68.00;;;;;;5174113;27;20022;-70
2023/09/30 04:09:17;;;;;;;1.23;0.85;;;15.00;68.00;;;;;;5174849;27;20018;-71
2023/09/30 04:11:42;;;;;;;0.40;0.40;;;15.00;68.30;;;;;;5174881;27;20026;-70
2023/09/30 04:14:08;;;;;;;0.40;0.40;;;15.00;68.40;;;;;;5174919;27;20041;-70
2023/09/30 04:16:35;;;;;;;0.40;0.40;;;15.00;68.30;;;;;;5175041;27;20030;-71
2023/09/30 04:19:01;;;;;;;0.50;0.50;;;15.00;68.10;;;;;;5174572;27;20022;-70
2023/09/30 04:21:28;;;;;;;0.50;0.50;;;15.00;67.90;;;;;;5174631;27;20083;-71
2023/09/30 04:23:54;;;;;;;0.50;0.50;;;15.00;67.80;;;;;;5174662;27;20021;-72
2023/09/30 04:26:19;;;;;;;0.68;0.68;;;15.00;68.10;;;;;;5174469;27;20027;-72
2023/09/30 04:28:45;;;;;;;0.40;0.40;;;15.00;68.20;;;;;;5174608;27;20049;-71
2023/09/30 04:31:13;;;;;;;0.40;0.40;;;15.00;68.30;;;;;;5174627;27;20031;-72
2023/09/30 04:33:39;;;;;;;0.40;0.40;;;15.00;68.20;;;;;;5174739;27;20509;-70
2023/09/30 04:36:08;;;;;;;0.70;0.70;;;14.90;68.10;;;;;;5174796;27;20023;-70
2023/09/30 04:38:33;;;;;;;0.43;0.43;;;14.90;68.10;;;;;;5154806;27;20391;-71
2023/09/30 04:41:00;;;;;;;0.75;0.75;;;14.90;67.90;;;;;;5153654;27;20105;-71
2023/09/30 04:43:28;;;;;;;0.82;0.82;;;14.90;68.10;;;;;;5153313;27;20055;-71
2023/09/30 04:45:56;;;;;;;0.50;0.50;;;14.90;68.40;;;;;;5153745;27;20027;-70
2023/09/30 04:48:23;;;;;;;0.60;0.60;;;14.90;68.40;;;;;;5161096;27;20026;-71
2023/09/30 04:50:48;;;;;;;0.50;0.50;;;14.80;68.20;;;;;;5174577;27;20048;-71
2023/09/30 04:53:15;;;;;;;0.50;0.50;;;14.90;68.00;;;;;;5174176;27;20065;-70
2023/09/30 04:55:41;;;;;;;0.60;0.60;;;14.80;67.80;;;;;;5174183;27;20478;-71
2023/09/30 04:58:06;;;;;;;0.55;0.55;;;14.80;67.80;;;;;;5173896;27;20094;-71
2023/09/30 05:00:33;;;;;;;0.50;0.50;;;14.80;68.10;;;;;;5174243;27;20026;-71
2023/09/30 05:02:59;;;;;;;0.40;0.40;;;14.80;68.40;;;;;;5173926;27;20032;-71
2023/09/30 05:05:24;;;;;;;0.50;0.50;;;14.80;68.60;;;;;;5173739;27;20109;-73
2023/09/30 05:07:50;;;;;;;0.40;0.40;;;14.90;68.90;;;;;;5173851;27;20075;-71
2023/09/30 05:10:16;;;;;;;0.47;0.47;;;15.00;69.10;;;;;;5174259;27;20029;-72
2023/09/30 05:12:46;;;;;;;2.40;1.35;;;15.00;69.30;;;;;;5174023;27;20070;-72
2023/09/30 05:15:15;;;;;;;0.50;0.50;;;15.10;69.30;;;;;;5173875;27;20074;-72
2023/09/30 05:17:44;;;;;;;0.60;0.60;;;15.10;69.40;;;;;;5170044;27;20180;-72
2023/09/30 05:20:12;;;;;;;0.40;0.40;;;15.20;69.30;;;;;;5173883;27;20075;-72
2023/09/30 05:22:39;;;;;;;1.25;0.60;;;15.20;69.40;;;;;;5173639;27;20041;-72
2023/09/30 05:25:04;;;;;;;0.45;0.45;;;15.30;69.50;;;;;;5173770;27;20387;-72
2023/09/30 05:27:30;;;;;;;3.03;1.50;;;15.30;69.50;;;;;;5173699;27;20022;-71
2023/09/30 05:29:56;;;;;;;0.50;0.50;;;15.40;69.50;;;;;;5173859;27;20515;-71
2023/09/30 05:32:22;;;;;;;0.47;0.47;;;15.40;69.50;;;;;;5173576;27;20045;-72
2023/09/30 05:34:48;;;;;;;0.40;0.40;;;15.50;69.50;;;;;;5174048;27;20025;-72
2023/09/30 05:37:13;;;;;;;0.43;0.43;;;15.50;69.60;;;;;;5165716;27;20394;-73
2023/09/30 05:39:40;;;;;;;0.60;0.60;;;15.60;69.70;;;;;;5152743;27;20040;-72
2023/09/30 05:42:06;;;;;;;0.60;0.60;;;15.70;69.70;;;;;;5152643;27;20030;-72
2023/09/30 05:44:32;;;;;;;0.55;0.55;;;15.70;69.80;;;;;;5152768;27;20031;-72
2023/09/30 05:46:59;;;;;;;0.40;0.40;;;15.80;69.80;;;;;;5152451;27;20449;-72
2023/09/30 05:49:25;;;;;;;0.50;0.50;;;15.80;69.90;;;;;;5169667;27;20082;-71
2023/09/30 05:51:51;;;;;;;0.68;0.68;;;15.80;69.80;;;;;;5173718;27;20038;-71
2023/09/30 05:54:16;;;;;;;3.33;0.70;;;15.80;69.90;;;;;;5173434;27;20022;-71
2023/09/30 05:56:45;;;;;;;0.75;0.65;;;15.90;69.90;;;;;;5159543;27;20049;-72
2023/09/30 05:59:10;;;;;;;0.50;0.50;;;16.00;70.00;;;;;;5173354;27;20360;-72
2023/09/30 06:01:35;;;;;;;0.47;0.47;;;16.00;70.00;;;;;;5157300;27;20075;-72
2023/09/30 06:04:01;;;;;;;0.60;0.60;;;16.10;69.90;;;;;;5152498;27;20051;-72
2023/09/30 06:06:30;;;;;;;0.73;0.73;;;16.10;69.90;;;;;;5153659;27;20022;-72
2023/09/30 06:08:59;;;;;;;0.40;0.40;;;16.10;69.90;;;;;;5173249;27;20471;-72
2023/09/30 06:11:28;;;;;;;0.30;0.30;;;16.20;69.90;;;;;;5159092;27;20486;-72
2023/09/30 06:14:00;;;;;;;1.45;1.10;;;16.20;69.90;;;;;;5152631;27;20015;-72
2023/09/30 06:16:27;;;;;;;0.73;0.73;;;16.20;69.90;;;;;;5153595;27;20443;-71
2023/09/30 06:18:55;;;;;;;1.25;1.15;;;16.30;69.90;;;;;;5171969;27;20053;-72
2023/09/30 06:21:21;;;;;;;0.35;0.35;;;16.30;70.00;;;;;;5159695;27;20070;-72
2023/09/30 06:23:48;;;;;;;0.40;0.40;;;16.30;70.00;;;;;;5151908;27;20037;-72
2023/09/30 06:26:16;;;;;;;0.40;0.40;;;16.40;70.00;;;;;;5151595;27;21066;-72
2023/09/30 06:28:42;;;;;;;0.57;0.57;;;16.40;69.90;;;;;;5173073;27;20512;-72
2023/09/30 06:31:08;;;;;;;0.40;0.40;;;16.50;69.90;;;;;;5165410;27;20019;-72
2023/09/30 06:33:39;;;;;;;0.38;0.38;;;16.60;69.90;;;;;;5155979;27;20096;-73
2023/09/30 06:36:16;;;;;;;0.40;0.40;;;16.60;69.90;;;;;;5153344;27;20416;-71
2023/09/30 06:38:43;;;;;;;0.40;0.40;;;16.70;69.90;;;;;;5155789;27;20030;-70
2023/09/30 06:41:09;;;;;;;0.80;0.80;;;16.70;70.10;;;;;;5155883;27;20123;-71
2023/09/30 06:43:35;;;;;;;0.60;0.60;;;16.90;70.60;;;;;;5161571;27;20078;-71
2023/09/30 06:46:09;;;;;;;1.08;0.98;;;17.20;71.50;;;;;;5173373;27;20470;-70
2023/09/30 06:48:35;;;;;;;0.55;0.55;;;17.60;72.80;;;;;;5165666;27;20423;-71
2023/09/30 06:51:00;;;;;;;0.57;0.57;;;18.10;73.10;;;;;;5166617;27;20019;-71
2023/09/30 06:53:26;;;;;;;0.60;0.60;;;18.50;73.40;;;;;;5155681;27;20497;-71
2023/09/30 06:55:52;;;;;;;0.60;0.60;;;19.00;73.80;;;;;;5154987;27;20022;-71
2023/09/30 06:58:21;;;;;;;1.05;1.02;;;19.50;74.30;;;;;;5171348;27;20455;-71
2023/09/30 07:00:48;;;;;;;0.50;0.50;;;20.00;74.50;;;;;;5176471;27;20021;-71
2023/09/30 07:03:15;;;;;;;0.50;0.50;;;20.50;74.40;;;;;;5176254;27;20405;-72
2023/09/30 07:05:41;;;;;;;0.70;0.70;;;21.00;74.00;;;;;;5168726;27;20062;-71
2023/09/30 07:08:06;;;;;;;0.52;0.52;;;21.30;73.50;;;;;;5171108;27;20066;-71
2023/09/30 07:10:32;;;;;;;0.57;0.50;;;21.70;73.40;;;;;;5170157;27;20022;-71
2023/09/30 07:12:58;;;;;;;0.73;0.73;;;22.10;73.20;;;;;;5155251;27;20099;-70
2023/09/30 07:15:24;;;;;;;0.40;0.40;;;22.50;73.20;;;;;;5155277;27;20412;-71
2023/09/30 07:17:49;;;;;;;0.52;0.52;;;22.80;73.10;;;;;;5169930;27;20615;-68
2023/09/30 07:20:15;;;;;;;0.68;0.68;;;23.20;73.60;;;;;;5171964;27;20102;-67
2023/09/30 07:22:41;;;;;;;0.60;0.60;;;23.50;73.10;;;;;;5155042;27;20615;-68
2023/09/30 07:25:08;;;;;;;0.80;0.80;;;23.80;73.30;;;;;;5154959;27;20026;-70
2023/09/30 07:27:34;;;;;;;0.60;0.60;;;24.20;73.00;;;;;;5165874;27;20018;-71
2023/09/30 07:30:00;;;;;;;0.52;0.52;;;24.40;72.00;;;;;;5175773;27;20473;-71
2023/09/30 07:32:25;;;;;;;0.65;0.65;;;24.60;71.70;;;;;;5171280;27;20034;-69
2023/09/30 07:34:51;;;;;;;0.60;0.60;;;24.90;71.20;;;;;;5173739;27;20825;-68
2023/09/30 07:37:18;;;;;;;0.90;0.90;;;25.10;71.50;;;;;;5168224;27;20510;-68
2023/09/30 07:39:44;;;;;;;0.43;0.43;;;25.30;71.70;;;;;;5164528;27;20029;-71
2023/09/30 07:42:10;;;;;;;0.60;0.60;;;25.60;71.50;;;;;;5169668;27;20034;-71
2023/09/30 07:44:37;;;;;;;1.42;0.70;;;25.80;70.70;;;;;;5170469;27;20348;-68
2023/09/30 07:47:03;;;;;;;0.68;0.68;;;26.00;70.20;;;;;;5170515;27;20030;-69
2023/09/30 07:49:29;;;;;;;0.57;0.57;;;26.10;68.90;;;;;;5175955;27;20420;-71
2023/09/30 07:51:55;;;;;;;1.30;0.80;;;26.30;70.40;;;;;;5172188;27;20030;-71
2023/09/30 07:54:20;;;;;;;0.65;0.65;;;26.60;71.10;;;;;;5175938;27;20247;-71
2023/09/30 07:56:46;;;;;;;0.70;0.70;;;27.00;70.60;;;;;;5170519;27;20040;-71
2023/09/30 07:59:12;;;;;;;0.52;0.52;;;27.20;70.20;;;;;;5175678;27;20056;-71
2023/09/30 08:01:37;;;;;;;0.73;0.73;;;27.60;70.40;;;;;;5173025;27;20102;-68
2023/09/30 08:04:03;;;;;;;0.47;0.47;;;28.00;69.30;;;;;;5174345;27;20026;-68
2023/09/30 08:06:29;;;;;;;0.40;0.40;;;28.30;69.60;;;;;;5165455;27;20046;-68
2023/09/30 08:08:55;;;;;;;2.20;0.60;;;28.50;68.50;;;;;;5174847;27;20051;-68
2023/09/30 08:11:20;;;;;;;0.60;0.60;;;28.80;68.30;;;;;;5174743;27;20642;-68
2023/09/30 08:13:46;;;;;;;0.65;0.65;;;29.10;66.90;;;;;;5174988;27;20380;-70
2023/09/30 08:16:13;;;;;;;0.65;0.60;;;29.30;67.20;;;;;;5170811;27;20071;-70
2023/09/30 08:18:38;;;;;;;0.65;0.65;;;29.60;66.10;;;;;;5176356;27;20059;-71
2023/09/30 08:21:04;;;;;;;0.45;0.45;;;29.80;65.50;;;;;;5176409;27;20066;-68
2023/09/30 08:23:31;;;;;;;0.90;0.90;;;30.00;65.10;;;;;;5174904;27;20026;-67
2023/09/30 08:25:59;;;;;;;1.25;1.05;;;30.20;64.90;;;;;;5175296;27;20026;-70
2023/09/30 08:28:25;;;;;;;1.13;1.02;;;30.50;65.10;;;;;;5156556;27;20126;-71
2023/09/30 08:30:54;;;;;;;1.38;1.15;;;30.80;64.60;;;;;;5160746;27;20058;-69
2023/09/30 08:33:20;;;;;;;0.50;0.50;;;31.10;63.70;;;;;;5166787;27;20521;-70
2023/09/30 08:35:45;;;;;;;0.77;0.77;;;31.30;63.60;;;;;;5175180;27;20026;-67
2023/09/30 08:38:11;;;;;;;0.60;0.60;;;31.50;61.60;;;;;;5170099;27;20498;-69
2023/09/30 08:40:38;;;;;;;0.40;0.40;;;31.70;59.90;;;;;;5174810;27;20065;-69
2023/09/30 08:43:04;;;;;;;0.60;0.60;;;31.90;61.20;;;;;;5159616;27;20031;-68
2023/09/30 08:45:34;;;;;;;0.50;0.50;;;32.10;60.10;;;;;;5153977;27;20110;-69
2023/09/30 08:48:05;;;;;;;0.70;0.70;;;32.30;59.30;;;;;;5149568;27;20097;-70
2023/09/30 08:50:31;;;;;;;0.80;0.80;;;32.40;58.10;;;;;;5169450;27;20036;-68
2023/09/30 08:52:57;;;;;;;2.33;1.00;;;32.50;58.50;;;;;;5160109;27;20031;-68
2023/09/30 08:55:27;;;;;;;0.73;0.73;;;32.70;57.70;;;;;;5152461;27;20079;-70
2023/09/30 08:57:54;;;;;;;0.75;0.75;;;32.90;57.70;;;;;;5166071;27;20038;-70
2023/09/30 09:00:20;;;;;;;0.70;0.70;;;33.10;56.40;;;;;;5175982;27;20126;-70
2023/09/30 09:02:46;;;;;;;1.17;1.05;;;33.30;55.10;;;;;;5163490;27;20166;-70
2023/09/30 09:05:11;;;;;;;1.40;1.13;;;33.30;55.30;;;;;;5154104;27;20498;-70
2023/09/30 09:07:37;;;;;;;0.50;0.50;;;33.40;53.60;;;;;;5163646;27;20036;-70
2023/09/30 09:10:07;;;;;;;0.80;0.80;;;33.30;52.30;;;;;;5174858;27;20037;-70
2023/09/30 09:12:35;;;;;;;0.85;0.85;;;33.40;50.60;;;;;;5164449;27;20101;-70
2023/09/30 09:15:00;;;;;;;0.60;0.60;;;33.30;50.10;;;;;;5153764;27;20023;-70
2023/09/30 09:17:41;;;;;;;0.60;0.60;;;33.40;49.90;;;;;;5160915;27;20492;-70
2023/09/30 09:20:09;;;;;;;3.92;1.05;;;33.50;50.40;;;;;;5173630;27;20032;-70
2023/09/30 09:22:44;;;;;;;0.50;0.50;;;33.60;48.70;;;;;;5163404;27;20163;-70
2023/09/30 09:25:10;;;;;;;1.58;0.80;;;33.70;48.10;;;;;;5153770;27;20027;-70
2023/09/30 09:27:37;;;;;;;0.95;0.95;;;33.80;47.00;;;;;;5166094;27;20534;-70
2023/09/30 09:30:15;;;;;;;1.13;1.02;;;33.90;46.10;;;;;;5173095;27;20383;-70
2023/09/30 09:32:59;;;;;;;0.52;0.52;;;33.90;45.30;;;;;;5173638;27;20019;-69
2023/09/30 09:35:32;;;;;;;0.45;0.45;;;33.80;43.00;;;;;;5174781;27;20022;-69
2023/09/30 09:38:02;;;;;;;0.50;0.50;;;33.80;42.20;;;;;;5171042;27;20057;-68
2023/09/30 09:40:30;;;;;;;1.33;1.23;;;33.90;41.40;;;;;;5173484;27;20420;-68
2023/09/30 09:42:57;;;;;;;0.50;0.50;;;34.00;40.40;;;;;;5172873;27;20029;-69
2023/09/30 09:45:26;;;;;;;0.70;0.70;;;34.00;39.40;;;;;;5173123;27;20118;-69
2023/09/30 09:47:53;;;;;;;1.40;1.00;;;34.10;39.80;;;;;;5170345;27;20030;-69
2023/09/30 09:50:21;;;;;;;0.50;0.50;;;34.30;39.30;;;;;;5153843;27;20019;-69
2023/09/30 09:52:50;;;;;;;0.50;0.50;;;34.50;38.40;;;;;;5170001;27;20019;-69
2023/09/30 09:55:21;;;;;;;0.50;0.50;;;34.50;37.30;;;;;;5173493;27;20423;-68
2023/09/30 09:57:47;;;;;;;2.15;0.70;;;34.50;36.70;;;;;;5173279;27;20022;-69
2023/09/30 10:00:18;;;;;;;0.88;0.80;;;34.60;36.50;;;;;;5173285;27;20043;-69
2023/09/30 10:02:47;;;;;;;2.42;1.50;;;34.60;36.10;;;;;;5173286;27;20027;-69
2023/09/30 10:05:14;;;;;;;0.50;0.50;;;34.60;34.60;;;;;;5175816;27;20038;-68
2023/09/30 10:07:53;;;;;;;0.50;0.50;;;34.60;35.10;;;;;;5177219;27;20034;-69
2023/09/30 10:10:22;;;;;;;0.93;0.60;;;34.40;34.70;;;;;;5177743;27;20420;-69
2023/09/30 10:12:47;;;;;;;1.20;1.08;;;34.40;35.20;;;;;;5171120;27;20034;-69
2023/09/30 10:15:25;;;;;;;0.55;0.55;;;34.40;34.20;;;;;;5165560;27;20028;-70
2023/09/30 10:18:06;;;;;;;0.85;0.75;;;34.20;33.90;;;;;;5165483;27;20477;-69
2023/09/30 10:20:33;;;;;;;0.50;0.50;;;33.70;33.20;;;;;;5172407;27;20078;-69
2023/09/30 10:23:17;;;;;;;0.70;0.70;;;33.30;33.90;;;;;;5176866;27;20087;-69
2023/09/30 10:25:47;;;;;;;1.02;0.93;;;33.30;34.50;;;;;;5175660;27;20057;-69
2023/09/30 10:28:39;;;;;;;0.73;0.73;;;33.20;34.50;;;;;;5177083;27;20037;-69
2023/09/30 10:31:12;;;;;;;0.45;0.45;;;33.10;34.50;;;;;;5176595;27;20022;-69
2023/09/30 10:34:00;;;;;;;0.40;0.40;;;32.80;34.10;;;;;;5174699;27;20026;-69
2023/09/30 10:36:32;;;;;;;1.13;1.02;;;32.50;34.10;;;;;;5175598;27;20088;-68
2023/09/30 10:38:59;;;;;;;0.88;0.85;;;32.40;34.10;;;;;;5176770;27;20030;-69
2023/09/30 10:41:46;;;;;;;0.50;0.50;;;32.10;33.80;;;;;;5174985;27;20478;-69
2023/09/30 10:44:26;;;;;;;0.55;0.55;;;32.00;34.20;;;;;;5176921;27;20483;-70
2023/09/30 10:46:56;;;;;;;0.50;0.50;;;32.00;34.80;;;;;;5175862;27;20383;-70
2023/09/30 10:49:24;;;;;;;0.40;0.40;;;32.20;35.30;;;;;;5177201;27;20075;-70
2023/09/30 10:51:56;;;;;;;0.70;0.70;;;32.40;34.40;;;;;;5175050;27;20483;-69
2023/09/30 10:54:26;;;;;;;0.60;0.60;;;32.60;34.70;;;;;;5170893;27;20026;-70
2023/09/30 10:56:52;;;;;;;0.60;0.60;;;32.80;34.60;;;;;;5158292;27;20034;-70
2023/09/30 10:59:30;;;;;;;0.50;0.50;;;33.10;33.60;;;;;;5163738;27;20489;-70
2023/09/30 11:01:56;;;;;;;0.60;0.60;;;33.30;34.10;;;;;;5155936;27;20027;-70
2023/09/30 11:04:22;;;;;;;0.50;0.50;;;33.50;33.30;;;;;;5176511;27;20026;-70
2023/09/30 11:06:50;;;;;;;0.77;0.77;;;33.60;33.40;;;;;;5176936;27;20121;-70
2023/09/30 11:09:20;;;;;;;0.70;0.70;;;33.80;33.40;;;;;;5175508;27;20356;-68
2023/09/30 11:11:51;;;;;;;0.52;0.52;;;33.90;32.40;;;;;;5173526;27;20105;-69
2023/09/30 11:14:30;;;;;;;0.70;0.70;;;33.90;31.70;;;;;;5173863;27;20454;-68
2023/09/30 11:17:02;;;;;;;3.53;0.98;;;33.90;31.90;;;;;;5168329;27;20022;-69
2023/09/30 11:19:55;;;;;;;0.50;0.50;;;34.00;31.60;;;;;;5173715;27;20068;-69
2023/09/30 11:22:21;;;;;;;0.65;0.65;;;34.10;31.00;;;;;;5157676;27;20429;-70
2023/09/30 11:24:47;;;;;;;0.47;0.47;;;34.00;30.30;;;;;;5176500;27;20082;-69
2023/09/30 11:27:13;;;;;;;0.82;0.82;;;33.90;29.90;;;;;;5162809;27;20060;-69
2023/09/30 11:29:49;;;;;;;0.70;0.70;;;33.70;29.50;;;;;;5168088;27;20022;-68
2023/09/30 11:32:26;;;;;;;0.70;0.70;;;33.50;30.20;;;;;;5175912;27;20026;-69
2023/09/30 11:34:52;;;;;;;0.47;0.47;;;33.50;30.10;;;;;;5172289;27;20539;-68
2023/09/30 11:37:18;;;;;;;0.52;0.52;;;33.50;29.90;;;;;;5165050;27;20018;-68
2023/09/30 11:39:44;;;;;;;0.40;0.40;;;33.50;29.70;;;;;;5155339;27;20492;-68
2023/09/30 11:42:20;;;;;;;0.60;0.60;;;33.50;28.90;;;;;;5157287;27;20056;-69
2023/09/30 11:44:47;;;;;;;1.08;0.98;;;33.30;28.90;;;;;;5154212;27;20031;-70
2023/09/30 11:47:14;;;;;;;0.50;0.50;;;33.10;29.00;;;;;;5165033;27;20065;-69
2023/09/30 11:49:44;;;;;;;0.52;0.52;;;33.00;28.80;;;;;;5154638;27;20019;-67
2023/09/30 11:52:11;;;;;;;0.50;0.50;;;32.80;29.00;;;;;;5167191;27;20521;-67
2023/09/30 11:54:43;;;;;;;0.70;0.70;;;32.80;28.90;;;;;;5174431;27;20476;-67
2023/09/30 11:57:10;;;;;;;0.52;0.52;;;32.60;29.20;;;;;;5175110;27;20022;-67
2023/09/30 11:59:36;;;;;;;0.47;0.47;;;32.50;29.50;;;;;;5174407;27;20031;-67
2023/09/30 12:02:03;;;;;;;1.17;0.93;;;32.30;29.70;;;;;;5174768;27;20041;-68
2023/09/30 12:04:29;;;;;;;9.30;2.35;;;32.20;30.10;;;;;;5173801;27;20030;-68
2023/09/30 12:06:56;;;;;;;0.52;0.52;;;32.10;30.00;;;;;;5174853;27;20034;-70
2023/09/30 12:09:22;;;;;;;0.80;0.80;;;32.00;30.10;;;;;;5175705;27;20462;-68
2023/09/30 12:11:51;;;;;;;4.05;0.73;;;31.90;29.80;;;;;;5164458;27;20029;-68
2023/09/30 12:14:17;;;;;;;0.60;0.60;;;31.80;30.30;;;;;;5175228;27;20375;-68
2023/09/30 12:16:47;;;;;;;0.70;0.70;;;31.70;29.90;;;;;;5174750;27;20041;-68
2023/09/30 12:19:22;;;;;;;;;;;31.50;30.00;;;;;;5154577;27;20027;-68
2023/09/30 12:21:48;;;;;;;0.73;0.73;;;31.40;30.40;;;;;;5165727;27;19907;-68
2023/09/30 12:24:16;;;;;;;0.60;0.60;;;31.30;30.50;;;;;;5173233;27;20041;-68
2023/09/30 12:26:48;;;;;;;0.50;0.50;;;31.20;30.40;;;;;;5173819;27;20478;-68
2023/09/30 12:29:18;;;;;;;0.40;0.40;;;30.90;30.60;;;;;;5172953;27;20033;-67
2023/09/30 12:31:48;;;;;;;0.43;0.43;;;30.80;30.90;;;;;;5164680;27;20118;-68
2023/09/30 12:34:14;;;;;;;0.60;0.60;;;30.70;31.20;;;;;;5165956;27;20026;-67
2023/09/30 12:36:40;;;;;;;0.60;0.60;;;30.60;30.80;;;;;;5161289;27;20078;-67
2023/09/30 12:39:10;;;;;;;0.40;0.40;;;30.40;31.20;;;;;;5172611;27;20030;-67
2023/09/30 12:41:45;;;;;;;0.63;0.63;;;30.30;31.70;;;;;;5174598;27;20499;-68
2023/09/30 12:44:11;;;;;;;0.50;0.50;;;30.30;31.50;;;;;;5171680;27;20034;-67
2023/09/30 12:46:39;;;;;;;0.80;0.80;;;30.10;31.40;;;;;;5174201;27;20038;-68
2023/09/30 12:49:05;;;;;;;0.50;0.50;;;30.00;31.60;;;;;;5172705;27;20459;-68